Slide Mountain Weather observations

Data are for 10 minute period ending at time listed.
 Day   Time   Solar   Ave.   Ave.  Ave.  Vector  Max.    Baro.  
  of    of     Rad.   Air    Rel.  Wind   Wind   Wind   Press.  
Year   Day            Temp.  Hum.  Speed  Dir.   Gust           
2018   (PST)  Kw/m2    F      %     mph   deg.    mph     mb.   
-----------------------------------------------------------------
 114    9:50   0.69   38.9    37   16.1   113     19.2   1102.4 
 114   10:00   0.71   38.9    37   17.2   107     22.5   1102.4 
 114   10:10   0.73   38.8    38   16.4   109     20.6   1102.4 
 114   10:20   0.76   39.4    38   14.4   109     20.3   1102.4 
 114   10:30   0.71   39.6    37   13.1   111     20.8   1102.4 
 114   10:40   0.77   39.7    37   11.5   112     19.3   1102.4 
 114   10:50   0.76   40.4    38   11.8   115     18.2   1102.4 
 114   11:00   0.76   41.4    38   11.4   105     16.1   1102.4 
 114   11:10   0.75   41.1    38    9.7   106     15.6   1102.4 
 114   11:20   0.80   41.7    39   10.6   107     15.3   1102.4 
 114   11:30   0.80   42.4    37    9.6   115     13.9   1102.4 
 114   11:40   0.81   42.4    38    8.9   116     13.4   1102.4 
 114   11:50   0.75   41.4    40   11.4   111     17.0   1102.4 
 114   12:00   0.77   41.7    40    8.9   114     15.2   1102.4 
 114   12:10   0.83   42.9    38    8.4   127     13.1   1102.4 
 114   12:20   0.81   43.7    38    6.1   128     12.7   1102.4 
 114   12:30   0.85   44.1    35    5.8   162     10.5   1102.4 
 114   12:40   0.81   44.9    35    2.0   159      7.3   1102.4 
 114   12:50   0.82   45.4    35    2.9   161      8.0   1102.4 
 114   13:00   0.86   47.0    32    2.6   204      7.9   1102.4 
 114   13:10   0.83   47.5    32    2.9   201      7.5   1102.4 
 114   13:20   0.81   46.5    35    4.4   124      9.8   1102.4 
 114   13:30   0.79   46.0    35    1.1   136      4.0   1102.4 
 114   13:40   0.78   46.9    34    2.6   143     13.9   1102.4 
 114   13:50   0.74   47.8    33    2.6   171      7.9   1102.4 
 114   14:00   0.74   47.1    34    5.8   155     12.8   1102.4 
 114   14:10   0.73   48.0    33    6.9   202     13.9   1102.4 
 114   14:20   0.71   49.1    32    7.5   209     16.0   1102.4 
 114   14:30   0.69   49.1    32    9.1   224     18.9   1102.4 
 114   14:40   0.67   49.0    32    6.0   187     13.2   1102.4 
 114   14:50   0.64   47.6    34    4.3   179     13.5   1102.4 
 114   15:00   0.63   48.5    33    4.2   185      9.2   1102.4 
 114   15:10   0.60   49.3    32    5.1   180     14.5   1102.4 
 114   15:20   0.58   49.9    31    6.5   207     12.4   1102.4 
 114   15:30   0.56   49.2    32    6.0   225     13.1   1102.4 
 114   15:40   0.53   49.5    32    5.3   180     13.5   1102.4 
 114   15:50   0.50   48.7    32    5.5   188     18.5   1102.4 
 114   16:00   0.47   48.2    33    1.7   232     10.6   1102.4 
 114   16:10   0.45   49.3    31    4.6   234     16.1   1102.4 
 114   16:20   0.42   48.1    33    2.5    75      8.7   1102.4 
 114   16:30   0.39   48.1    33    1.4   144      5.1   1102.4 
 114   16:40   0.36   48.7    32    1.9   357     10.1   1102.4 
 114   16:50   0.33   47.2    33    3.3    27     10.2   1102.4 
 114   17:00   0.30   46.8    34    0.0    49      0.7   1102.4 
 114   17:10   0.27   46.0    33    2.4    44      6.2   1102.4 
 114   17:20   0.25   45.0    34    4.1    59     10.5   1102.4 
 114   17:30   0.21   44.9    33    3.5    40      6.3   1102.4 
 114   17:40   0.18   45.6    32    0.6    65      3.3   1102.4 
 114   17:50   0.15   46.5    32    0.1    66      0.7   1102.4 
 114   18:00   0.12   45.5    34    1.8    39      7.0   1102.3 
 114   18:10   0.09   46.4    33    0.0     9      0.1   1102.3 
 114   18:20   0.06   47.3    32    0.0   260      0.6   1102.4 
 114   18:30   0.03   46.0    36    0.5   262      2.1   1102.4 
 114   18:40   0.01   44.7    37   -0.0    93      0.1   1102.4 
 114   18:50   0.00   43.3    36    1.7   302      3.2   1102.4 
 114   19:00   0.00   43.1    37    0.2   300      1.8   1102.4 
 114   19:10   0.00   43.0    39    1.5   260      5.2   1102.3 
 114   19:20   0.00   42.8    37    0.8   287      1.7   1102.3 
 114   19:30   0.00   42.6    39    3.3   258      7.2   1102.3 
 114   19:40   0.00   42.8    42    4.0   259      7.0   1102.4 
 114   19:50   0.00   42.7    43    0.1   246      2.3   1102.4 
 114   20:00   0.00   42.3    38    0.0   137      0.1   1102.4 
 114   20:10   0.00   41.9    37    0.3   127      3.0   1102.4 
 114   20:20   0.00   41.3    36    0.7   113      4.4   1102.3 
 114   20:30   0.00   41.0    34    1.3   108      4.8   1102.3 
 114   20:40   0.00   41.1    33    1.9    98      6.2   1102.3 
 114   20:50   0.00   40.8    33    5.9    80      7.6   1102.3 
 114   21:00   0.00   40.9    32    4.5    70      7.5   1102.3 
 114   21:10   0.00   41.3    33    0.1    67      0.8   1102.4 
 114   21:20   0.00   41.8    43    0.0     0      0.0   1102.4 
 114   21:30   0.00   42.0    47   -0.0   196      0.0   1102.4 
 114   21:40   0.00   41.9    40    0.0     0      0.0   1102.4 
 114   21:50   0.00   41.5    38   -0.0   302      0.0   1102.3 
 114   22:00   0.00   41.5    38    1.6   122      3.6   1102.3 
 114   22:10   0.00   41.5    36    3.7   115      4.7   1102.3 
 114   22:20   0.00   41.7    35    0.4   112      3.2   1102.3 
 114   22:30   0.00   42.0    39    0.0   112      0.3   1102.3 
 114   22:40   0.00   41.9    38    2.7   113      5.9   1102.4 
 114   22:50   0.00   41.3    40    8.0   126     10.8   1102.4 
 114   23:00   0.00   41.5    38   10.5   138     12.2   1102.4 
 114   23:10   0.00   41.7    37   10.5   150     13.3   1102.4 
 114   23:20   0.00   41.7    43   11.1   154     13.5   1102.4 
 114   23:30   0.00   41.5    47   10.4   166     12.6   1102.4 
 114   23:40   0.00   41.5    43    9.4   173     10.6   1102.4 
 114   23:50   0.00   41.5    39    9.1   176     10.4   1102.4 
 115    0:00   0.00   41.5    40   10.2   171     12.0   1102.4 
 115    0:10   0.00   41.5    42   10.5   171     11.8   1102.4 
 115    0:20   0.00   41.8    46   10.0   174     11.6   1102.4 
 115    0:30   0.00   41.9    48    8.8   183     10.4   1102.4 
 115    0:40   0.00   41.7    50    8.3   189     10.6   1102.4 
 115    0:50   0.00   41.6    47    8.4   184     10.9   1102.4 
 115    1:00   0.00   41.7    44    8.6   183     11.5   1102.4 
 115    1:10   0.00   41.8    41    9.1   177     11.2   1102.4 
 115    1:20   0.00   41.7    39    9.9   166     12.6   1102.4 
 115    1:30   0.00   41.6    38    9.7   165     11.6   1102.4 
 115    1:40   0.00   41.6    38    9.7   168     11.5   1102.4 
 115    1:50   0.00   41.7    38   10.8   168     12.3   1102.4 
 115    2:00   0.00   41.8    38   11.8   164     13.4   1102.4 
 115    2:10   0.00   41.8    38   10.5   167     12.0   1102.4 
 115    2:20   0.00   41.7    38    9.9   168     11.8   1102.4 
 115    2:30   0.00   41.7    38    9.2   174     11.2   1102.4 
 115    2:40   0.00   41.6    38    6.6   186      9.9   1102.4 
 115    2:50   0.00   41.4    39    6.8   193      8.6   1102.4 
 115    3:00   0.00   41.3    39    5.8   198      7.2   1102.4 
 115    3:10   0.00   41.4    39    7.3   195      9.5   1102.4 
 115    3:20   0.00   41.5    38    6.7   193      8.3   1102.4 
 115    3:30   0.00   41.4    37    6.1   198      8.3   1102.4 
 115    3:40   0.00   41.1    36    4.6   199      6.2   1102.4 
 115    3:50   0.00   41.0    36    4.4   204      6.5   1102.4 
 115    4:00   0.00   41.0    37    4.3   205      7.6   1102.4 
 115    4:10   0.00   41.0    38    4.7   210      7.3   1102.4 
 115    4:20   0.00   41.1    38    4.9   212      7.2   1102.4 
 115    4:30   0.00   41.3    36    4.9   208      6.9   1102.3 
 115    4:40   0.00   41.3    36    4.3   205      6.9   1102.3 
 115    4:50   0.00   41.4    37    6.4   214      9.0   1102.3 
 115    5:00   0.00   41.4    36    7.2   218      9.4   1102.3 
 115    5:10   0.00   41.5    34    5.6   211      6.9   1102.3 
 115    5:20   0.01   41.6    34    5.4   218      6.8   1102.3 
 115    5:30   0.02   41.7    32    3.6   225      5.1   1102.3 
 115    5:40   0.02   42.2    31    1.0   225      3.2   1102.3 
 115    5:50   0.02   42.5    28    0.3   209      1.9   1102.3 
 115    6:00   0.06   43.0    23    4.0   196      8.4   1102.3 
 115    6:10   0.12   45.5    20    3.5   190      4.1   1102.3 
 115    6:20   0.17   47.1    18    2.6   189      4.6   1102.4 
 115    6:30   0.18   46.8    17    4.9   176      7.9   1102.4 
 115    6:40   0.21   46.4    22    5.2   154      7.9   1102.4 
 115    6:50   0.25   46.4    25    4.0   148      6.8   1102.4 
 115    7:00   0.28   47.4    24    1.9   142      4.6   1102.4 
 115    7:10   0.31   47.4    27    4.4   138      5.9   1102.3 
 115    7:20   0.34   47.5    28    2.9   133      5.2   1102.4 
 115    7:30   0.37   48.1    31    3.1   123      7.0   1102.4 
 115    7:40   0.39   46.7    31    5.0   121      7.5   1102.4 
 115    7:50   0.42   47.1    34    4.8   123      7.2   1102.4 
 115    8:00   0.45   47.4    36    5.1   126      8.2   1102.4 
 115    8:10   0.47   47.5    35    6.0   120     13.1   1102.4 
 115    8:20   0.50   47.9    36    6.4   110      9.8   1102.4 
 115    8:30   0.53   47.8    35    6.3   120      9.1   1102.4 
 115    8:40   0.56   46.9    36    8.5   107     10.8   1102.4 
 115    8:50   0.58   47.0    34    8.4   109     10.6   1102.4 
 115    9:00   0.60   47.6    30    9.4   105     12.4   1102.4 
 115    9:10   0.63   47.6    31    9.5   111     13.7   1102.4 
 115    9:20   0.65   48.3    31    7.4   112     11.3   1102.4 
 115    9:30   0.67   48.7    30    8.4   124     13.9   1102.4 
 115    9:40   0.69   48.1    31   11.8   132     16.8   1102.4 

Return to Slide Mountain graphs page.


Western Regional Climate Center,wrcc@dri.edu